sensor_id;sensor_type;location;lat;lon;timestamp;P1;durP1;ratioP1;P2;durP2;ratioP2
24173;SDS011;12324;48.146;11.502;2023-04-06T00:01:01;19.58;;;9.57;;
24173;SDS011;12324;48.146;11.502;2023-04-06T00:03:28;21.90;;;10.70;;
24173;SDS011;12324;48.146;11.502;2023-04-06T00:05:55;17.83;;;9.85;;
24173;SDS011;12324;48.146;11.502;2023-04-06T00:08:21;20.67;;;9.93;;
24173;SDS011;12324;48.146;11.502;2023-04-06T00:10:49;21.10;;;9.30;;
24173;SDS011;12324;48.146;11.502;2023-04-06T00:13:16;17.90;;;9.55;;
24173;SDS011;12324;48.146;11.502;2023-04-06T00:15:43;18.85;;;10.18;;
24173;SDS011;12324;48.146;11.502;2023-04-06T00:18:09;21.02;;;10.23;;
24173;SDS011;12324;48.146;11.502;2023-04-06T00:20:36;18.58;;;9.38;;
24173;SDS011;12324;48.146;11.502;2023-04-06T00:23:03;19.00;;;10.18;;
24173;SDS011;12324;48.146;11.502;2023-04-06T00:25:30;18.98;;;9.30;;
24173;SDS011;12324;48.146;11.502;2023-04-06T00:27:57;18.02;;;9.70;;
24173;SDS011;12324;48.146;11.502;2023-04-06T00:30:24;19.77;;;9.50;;
24173;SDS011;12324;48.146;11.502;2023-04-06T00:32:51;17.20;;;8.95;;
24173;SDS011;12324;48.146;11.502;2023-04-06T00:35:18;18.20;;;8.18;;
24173;SDS011;12324;48.146;11.502;2023-04-06T00:37:46;17.92;;;8.38;;
24173;SDS011;12324;48.146;11.502;2023-04-06T00:40:14;16.67;;;8.50;;
24173;SDS011;12324;48.146;11.502;2023-04-06T00:42:41;15.38;;;7.90;;
24173;SDS011;12324;48.146;11.502;2023-04-06T00:45:08;19.40;;;8.88;;
24173;SDS011;12324;48.146;11.502;2023-04-06T00:47:36;17.95;;;9.20;;
24173;SDS011;12324;48.146;11.502;2023-04-06T00:50:03;17.95;;;9.63;;
24173;SDS011;12324;48.146;11.502;2023-04-06T00:52:30;20.58;;;9.45;;
24173;SDS011;12324;48.146;11.502;2023-04-06T00:54:57;18.58;;;10.40;;
24173;SDS011;12324;48.146;11.502;2023-04-06T00:57:24;17.70;;;10.48;;
24173;SDS011;12324;48.146;11.502;2023-04-06T00:59:51;20.88;;;9.63;;
24173;SDS011;12324;48.146;11.502;2023-04-06T01:02:19;17.63;;;8.93;;
24173;SDS011;12324;48.146;11.502;2023-04-06T01:04:46;18.63;;;9.63;;
24173;SDS011;12324;48.146;11.502;2023-04-06T01:07:13;18.08;;;9.98;;
24173;SDS011;12324;48.146;11.502;2023-04-06T01:09:40;18.92;;;10.20;;
24173;SDS011;12324;48.146;11.502;2023-04-06T01:12:08;20.73;;;9.43;;
24173;SDS011;12324;48.146;11.502;2023-04-06T01:14:35;18.58;;;9.15;;
24173;SDS011;12324;48.146;11.502;2023-04-06T01:17:02;17.67;;;8.75;;
24173;SDS011;12324;48.146;11.502;2023-04-06T01:19:29;17.58;;;8.15;;
24173;SDS011;12324;48.146;11.502;2023-04-06T01:21:56;16.67;;;9.40;;
24173;SDS011;12324;48.146;11.502;2023-04-06T01:24:24;17.27;;;8.95;;
24173;SDS011;12324;48.146;11.502;2023-04-06T01:26:51;16.35;;;8.18;;
24173;SDS011;12324;48.146;11.502;2023-04-06T01:29:18;14.32;;;7.47;;
24173;SDS011;12324;48.146;11.502;2023-04-06T01:31:45;16.55;;;8.27;;
24173;SDS011;12324;48.146;11.502;2023-04-06T01:34:13;18.80;;;7.88;;
24173;SDS011;12324;48.146;11.502;2023-04-06T01:36:40;16.02;;;7.68;;
24173;SDS011;12324;48.146;11.502;2023-04-06T01:39:07;18.05;;;8.75;;
24173;SDS011;12324;48.146;11.502;2023-04-06T01:41:34;15.45;;;8.15;;
24173;SDS011;12324;48.146;11.502;2023-04-06T01:44:02;15.40;;;7.82;;
24173;SDS011;12324;48.146;11.502;2023-04-06T01:46:29;19.27;;;8.80;;
24173;SDS011;12324;48.146;11.502;2023-04-06T01:48:56;20.13;;;9.73;;
24173;SDS011;12324;48.146;11.502;2023-04-06T01:51:23;18.73;;;8.63;;
24173;SDS011;12324;48.146;11.502;2023-04-06T01:53:51;15.10;;;8.35;;
24173;SDS011;12324;48.146;11.502;2023-04-06T01:56:18;14.77;;;8.18;;
24173;SDS011;12324;48.146;11.502;2023-04-06T01:58:46;18.95;;;9.77;;
24173;SDS011;12324;48.146;11.502;2023-04-06T02:01:13;17.85;;;8.38;;
24173;SDS011;12324;48.146;11.502;2023-04-06T02:03:40;16.27;;;8.55;;
24173;SDS011;12324;48.146;11.502;2023-04-06T02:06:07;16.10;;;8.20;;
24173;SDS011;12324;48.146;11.502;2023-04-06T02:08:35;15.60;;;8.00;;
24173;SDS011;12324;48.146;11.502;2023-04-06T02:11:02;14.25;;;6.75;;
24173;SDS011;12324;48.146;11.502;2023-04-06T02:13:29;17.42;;;8.23;;
24173;SDS011;12324;48.146;11.502;2023-04-06T02:15:56;13.43;;;7.32;;
24173;SDS011;12324;48.146;11.502;2023-04-06T02:18:23;13.65;;;7.20;;
24173;SDS011;12324;48.146;11.502;2023-04-06T02:20:50;17.30;;;8.10;;
24173;SDS011;12324;48.146;11.502;2023-04-06T02:23:17;17.35;;;8.43;;
24173;SDS011;12324;48.146;11.502;2023-04-06T02:25:44;14.95;;;6.85;;
24173;SDS011;12324;48.146;11.502;2023-04-06T02:28:12;16.42;;;7.63;;
24173;SDS011;12324;48.146;11.502;2023-04-06T02:30:39;20.02;;;8.57;;
24173;SDS011;12324;48.146;11.502;2023-04-06T02:33:06;19.15;;;8.50;;
24173;SDS011;12324;48.146;11.502;2023-04-06T02:35:33;15.95;;;8.05;;
24173;SDS011;12324;48.146;11.502;2023-04-06T02:38:00;18.40;;;8.40;;
24173;SDS011;12324;48.146;11.502;2023-04-06T02:40:27;17.50;;;8.00;;
24173;SDS011;12324;48.146;11.502;2023-04-06T02:42:54;15.50;;;7.95;;
24173;SDS011;12324;48.146;11.502;2023-04-06T02:45:21;19.20;;;8.25;;
24173;SDS011;12324;48.146;11.502;2023-04-06T02:47:49;16.75;;;8.05;;
24173;SDS011;12324;48.146;11.502;2023-04-06T02:50:16;15.00;;;7.68;;
24173;SDS011;12324;48.146;11.502;2023-04-06T02:52:43;18.90;;;8.10;;
24173;SDS011;12324;48.146;11.502;2023-04-06T02:55:10;16.80;;;8.65;;
24173;SDS011;12324;48.146;11.502;2023-04-06T02:57:37;15.10;;;8.27;;
24173;SDS011;12324;48.146;11.502;2023-04-06T03:00:05;17.13;;;8.98;;
24173;SDS011;12324;48.146;11.502;2023-04-06T03:02:32;26.85;;;9.43;;
24173;SDS011;12324;48.146;11.502;2023-04-06T03:04:59;20.13;;;8.98;;
24173;SDS011;12324;48.146;11.502;2023-04-06T03:07:27;17.83;;;8.23;;
24173;SDS011;12324;48.146;11.502;2023-04-06T03:09:54;17.75;;;9.05;;
24173;SDS011;12324;48.146;11.502;2023-04-06T03:12:21;14.32;;;7.75;;
24173;SDS011;12324;48.146;11.502;2023-04-06T03:14:48;16.60;;;8.70;;
24173;SDS011;12324;48.146;11.502;2023-04-06T03:17:15;17.17;;;8.15;;
24173;SDS011;12324;48.146;11.502;2023-04-06T03:19:42;15.07;;;7.85;;
24173;SDS011;12324;48.146;11.502;2023-04-06T03:22:09;16.65;;;8.63;;
24173;SDS011;12324;48.146;11.502;2023-04-06T03:24:36;16.92;;;8.13;;
24173;SDS011;12324;48.146;11.502;2023-04-06T03:27:03;16.77;;;8.35;;
24173;SDS011;12324;48.146;11.502;2023-04-06T03:29:32;17.73;;;9.60;;
24173;SDS011;12324;48.146;11.502;2023-04-06T03:31:59;15.35;;;9.05;;
24173;SDS011;12324;48.146;11.502;2023-04-06T03:34:26;20.90;;;8.88;;
24173;SDS011;12324;48.146;11.502;2023-04-06T03:36:53;15.70;;;8.27;;
24173;SDS011;12324;48.146;11.502;2023-04-06T03:39:34;18.52;;;9.25;;
24173;SDS011;12324;48.146;11.502;2023-04-06T03:42:02;16.58;;;8.52;;
24173;SDS011;12324;48.146;11.502;2023-04-06T03:44:29;19.70;;;9.07;;
24173;SDS011;12324;48.146;11.502;2023-04-06T03:46:56;16.02;;;9.20;;
24173;SDS011;12324;48.146;11.502;2023-04-06T03:49:23;16.92;;;9.35;;
24173;SDS011;12324;48.146;11.502;2023-04-06T03:51:50;17.80;;;9.63;;
24173;SDS011;12324;48.146;11.502;2023-04-06T03:54:17;17.85;;;9.25;;
24173;SDS011;12324;48.146;11.502;2023-04-06T03:56:44;19.30;;;9.55;;
24173;SDS011;12324;48.146;11.502;2023-04-06T03:59:11;20.63;;;9.73;;
24173;SDS011;12324;48.146;11.502;2023-04-06T04:01:38;18.73;;;9.70;;
24173;SDS011;12324;48.146;11.502;2023-04-06T04:04:06;17.20;;;9.88;;
24173;SDS011;12324;48.146;11.502;2023-04-06T04:06:33;18.13;;;10.07;;
24173;SDS011;12324;48.146;11.502;2023-04-06T04:09:02;17.27;;;8.68;;
24173;SDS011;12324;48.146;11.502;2023-04-06T04:11:29;18.13;;;9.48;;
24173;SDS011;12324;48.146;11.502;2023-04-06T04:13:56;17.98;;;10.55;;
24173;SDS011;12324;48.146;11.502;2023-04-06T04:16:23;18.15;;;9.52;;
24173;SDS011;12324;48.146;11.502;2023-04-06T04:18:50;18.20;;;9.95;;
24173;SDS011;12324;48.146;11.502;2023-04-06T04:21:17;17.52;;;8.88;;
24173;SDS011;12324;48.146;11.502;2023-04-06T04:23:45;19.00;;;10.20;;
24173;SDS011;12324;48.146;11.502;2023-04-06T04:26:12;18.60;;;10.75;;
24173;SDS011;12324;48.146;11.502;2023-04-06T04:28:39;19.38;;;9.68;;
24173;SDS011;12324;48.146;11.502;2023-04-06T04:31:06;17.48;;;10.32;;
24173;SDS011;12324;48.146;11.502;2023-04-06T04:33:33;17.50;;;9.98;;
24173;SDS011;12324;48.146;11.502;2023-04-06T04:36:00;18.95;;;10.60;;
24173;SDS011;12324;48.146;11.502;2023-04-06T04:38:28;17.13;;;9.52;;
24173;SDS011;12324;48.146;11.502;2023-04-06T04:40:55;17.40;;;10.27;;
24173;SDS011;12324;48.146;11.502;2023-04-06T04:43:22;17.35;;;9.38;;
24173;SDS011;12324;48.146;11.502;2023-04-06T04:45:49;17.30;;;9.48;;
24173;SDS011;12324;48.146;11.502;2023-04-06T04:48:16;19.20;;;10.55;;
24173;SDS011;12324;48.146;11.502;2023-04-06T04:50:43;25.70;;;9.80;;
24173;SDS011;12324;48.146;11.502;2023-04-06T04:53:11;19.83;;;10.30;;
24173;SDS011;12324;48.146;11.502;2023-04-06T04:55:38;17.92;;;9.70;;
24173;SDS011;12324;48.146;11.502;2023-04-06T04:58:05;21.13;;;9.85;;
24173;SDS011;12324;48.146;11.502;2023-04-06T05:00:32;18.73;;;10.07;;
24173;SDS011;12324;48.146;11.502;2023-04-06T05:02:59;20.77;;;10.32;;
24173;SDS011;12324;48.146;11.502;2023-04-06T05:05:26;19.13;;;9.68;;
24173;SDS011;12324;48.146;11.502;2023-04-06T05:07:53;18.70;;;10.50;;
24173;SDS011;12324;48.146;11.502;2023-04-06T05:10:20;17.05;;;9.52;;
24173;SDS011;12324;48.146;11.502;2023-04-06T05:12:47;22.38;;;10.00;;
24173;SDS011;12324;48.146;11.502;2023-04-06T05:15:14;18.92;;;8.98;;
24173;SDS011;12324;48.146;11.502;2023-04-06T05:17:42;17.48;;;10.10;;
24173;SDS011;12324;48.146;11.502;2023-04-06T05:20:09;18.38;;;10.27;;
24173;SDS011;12324;48.146;11.502;2023-04-06T05:22:36;19.55;;;9.65;;
24173;SDS011;12324;48.146;11.502;2023-04-06T05:25:03;17.17;;;9.50;;
24173;SDS011;12324;48.146;11.502;2023-04-06T05:27:30;16.30;;;9.50;;
24173;SDS011;12324;48.146;11.502;2023-04-06T05:29:58;17.80;;;9.73;;
24173;SDS011;12324;48.146;11.502;2023-04-06T05:32:25;16.17;;;8.35;;
24173;SDS011;12324;48.146;11.502;2023-04-06T05:34:52;17.13;;;10.13;;
24173;SDS011;12324;48.146;11.502;2023-04-06T05:37:19;21.10;;;9.20;;
24173;SDS011;12324;48.146;11.502;2023-04-06T05:39:46;18.90;;;9.90;;
24173;SDS011;12324;48.146;11.502;2023-04-06T05:42:13;20.55;;;10.25;;
24173;SDS011;12324;48.146;11.502;2023-04-06T05:44:41;18.75;;;10.13;;
24173;SDS011;12324;48.146;11.502;2023-04-06T05:47:08;20.02;;;10.23;;
24173;SDS011;12324;48.146;11.502;2023-04-06T05:49:36;21.60;;;9.77;;
24173;SDS011;12324;48.146;11.502;2023-04-06T05:52:03;18.55;;;10.13;;
24173;SDS011;12324;48.146;11.502;2023-04-06T05:54:30;18.67;;;9.50;;
24173;SDS011;12324;48.146;11.502;2023-04-06T05:56:57;22.08;;;10.25;;
24173;SDS011;12324;48.146;11.502;2023-04-06T05:59:24;20.52;;;9.50;;
24173;SDS011;12324;48.146;11.502;2023-04-06T06:01:51;18.98;;;10.13;;
24173;SDS011;12324;48.146;11.502;2023-04-06T06:04:18;19.90;;;10.10;;
24173;SDS011;12324;48.146;11.502;2023-04-06T06:06:45;19.25;;;10.00;;
24173;SDS011;12324;48.146;11.502;2023-04-06T06:09:13;22.63;;;10.80;;
24173;SDS011;12324;48.146;11.502;2023-04-06T06:11:40;21.42;;;9.45;;
24173;SDS011;12324;48.146;11.502;2023-04-06T06:14:08;17.27;;;9.88;;
24173;SDS011;12324;48.146;11.502;2023-04-06T06:16:34;18.85;;;10.05;;
24173;SDS011;12324;48.146;11.502;2023-04-06T06:19:01;18.17;;;9.63;;
24173;SDS011;12324;48.146;11.502;2023-04-06T06:21:28;16.83;;;8.63;;
24173;SDS011;12324;48.146;11.502;2023-04-06T06:23:55;25.90;;;10.15;;
24173;SDS011;12324;48.146;11.502;2023-04-06T06:26:22;18.98;;;9.55;;
24173;SDS011;12324;48.146;11.502;2023-04-06T06:28:49;21.30;;;9.10;;
24173;SDS011;12324;48.146;11.502;2023-04-06T06:31:16;21.42;;;9.48;;
24173;SDS011;12324;48.146;11.502;2023-04-06T06:33:44;20.38;;;8.85;;
24173;SDS011;12324;48.146;11.502;2023-04-06T06:36:11;20.50;;;10.23;;
24173;SDS011;12324;48.146;11.502;2023-04-06T06:38:38;17.60;;;9.10;;
24173;SDS011;12324;48.146;11.502;2023-04-06T06:41:05;16.40;;;8.73;;
24173;SDS011;12324;48.146;11.502;2023-04-06T06:43:32;15.30;;;8.32;;
24173;SDS011;12324;48.146;11.502;2023-04-06T06:45:59;18.27;;;10.07;;
24173;SDS011;12324;48.146;11.502;2023-04-06T06:48:26;20.40;;;8.98;;
24173;SDS011;12324;48.146;11.502;2023-04-06T06:50:54;17.90;;;9.65;;
24173;SDS011;12324;48.146;11.502;2023-04-06T06:53:21;17.38;;;9.05;;
24173;SDS011;12324;48.146;11.502;2023-04-06T06:55:48;16.65;;;8.85;;
24173;SDS011;12324;48.146;11.502;2023-04-06T06:58:17;18.90;;;9.93;;
24173;SDS011;12324;48.146;11.502;2023-04-06T07:00:45;20.25;;;8.73;;
24173;SDS011;12324;48.146;11.502;2023-04-06T07:03:12;17.58;;;9.73;;
24173;SDS011;12324;48.146;11.502;2023-04-06T07:05:46;18.38;;;9.77;;
24173;SDS011;12324;48.146;11.502;2023-04-06T07:08:22;16.92;;;9.35;;
24173;SDS011;12324;48.146;11.502;2023-04-06T07:10:50;20.85;;;10.27;;
24173;SDS011;12324;48.146;11.502;2023-04-06T07:13:19;19.48;;;10.45;;
24173;SDS011;12324;48.146;11.502;2023-04-06T07:15:50;19.27;;;9.70;;
24173;SDS011;12324;48.146;11.502;2023-04-06T07:18:18;19.33;;;9.50;;
24173;SDS011;12324;48.146;11.502;2023-04-06T07:20:45;20.92;;;9.60;;
24173;SDS011;12324;48.146;11.502;2023-04-06T07:23:12;16.63;;;9.40;;
24173;SDS011;12324;48.146;11.502;2023-04-06T07:25:40;21.05;;;10.05;;
24173;SDS011;12324;48.146;11.502;2023-04-06T07:28:07;19.35;;;9.82;;
24173;SDS011;12324;48.146;11.502;2023-04-06T07:30:34;20.05;;;10.18;;
24173;SDS011;12324;48.146;11.502;2023-04-06T07:33:02;22.00;;;10.32;;
24173;SDS011;12324;48.146;11.502;2023-04-06T07:35:29;19.60;;;9.75;;
24173;SDS011;12324;48.146;11.502;2023-04-06T07:37:56;20.33;;;8.60;;
24173;SDS011;12324;48.146;11.502;2023-04-06T07:40:24;21.23;;;10.55;;
24173;SDS011;12324;48.146;11.502;2023-04-06T07:42:52;17.95;;;10.43;;
24173;SDS011;12324;48.146;11.502;2023-04-06T07:45:22;23.48;;;10.77;;
24173;SDS011;12324;48.146;11.502;2023-04-06T07:47:49;25.08;;;10.45;;
24173;SDS011;12324;48.146;11.502;2023-04-06T07:50:16;19.00;;;10.23;;
24173;SDS011;12324;48.146;11.502;2023-04-06T07:52:43;21.20;;;8.90;;
24173;SDS011;12324;48.146;11.502;2023-04-06T07:55:11;21.83;;;9.43;;
24173;SDS011;12324;48.146;11.502;2023-04-06T07:57:38;21.92;;;10.30;;
24173;SDS011;12324;48.146;11.502;2023-04-06T08:00:05;18.50;;;9.10;;
24173;SDS011;12324;48.146;11.502;2023-04-06T08:02:32;16.30;;;8.57;;
24173;SDS011;12324;48.146;11.502;2023-04-06T08:05:00;19.38;;;10.20;;
24173;SDS011;12324;48.146;11.502;2023-04-06T08:07:27;20.88;;;9.52;;
24173;SDS011;12324;48.146;11.502;2023-04-06T08:09:54;19.55;;;9.18;;
24173;SDS011;12324;48.146;11.502;2023-04-06T08:12:21;18.77;;;8.98;;
24173;SDS011;12324;48.146;11.502;2023-04-06T08:14:48;15.35;;;8.15;;
24173;SDS011;12324;48.146;11.502;2023-04-06T08:17:15;18.05;;;8.60;;
24173;SDS011;12324;48.146;11.502;2023-04-06T08:19:43;20.30;;;9.15;;
24173;SDS011;12324;48.146;11.502;2023-04-06T08:22:10;16.80;;;8.40;;
24173;SDS011;12324;48.146;11.502;2023-04-06T08:24:38;20.08;;;9.27;;
24173;SDS011;12324;48.146;11.502;2023-04-06T08:27:04;19.38;;;9.38;;
24173;SDS011;12324;48.146;11.502;2023-04-06T08:29:31;18.40;;;8.95;;
24173;SDS011;12324;48.146;11.502;2023-04-06T08:31:58;20.50;;;9.55;;
24173;SDS011;12324;48.146;11.502;2023-04-06T08:34:25;21.20;;;8.88;;
24173;SDS011;12324;48.146;11.502;2023-04-06T08:36:51;19.83;;;9.43;;
24173;SDS011;12324;48.146;11.502;2023-04-06T08:39:18;25.27;;;9.88;;
24173;SDS011;12324;48.146;11.502;2023-04-06T08:41:51;17.87;;;9.00;;
24173;SDS011;12324;48.146;11.502;2023-04-06T08:44:18;19.77;;;9.63;;
24173;SDS011;12324;48.146;11.502;2023-04-06T08:46:45;19.25;;;9.75;;
24173;SDS011;12324;48.146;11.502;2023-04-06T08:49:12;17.35;;;9.27;;
24173;SDS011;12324;48.146;11.502;2023-04-06T08:51:42;19.70;;;9.38;;
24173;SDS011;12324;48.146;11.502;2023-04-06T08:54:09;19.13;;;8.75;;
24173;SDS011;12324;48.146;11.502;2023-04-06T08:56:39;18.55;;;8.68;;
24173;SDS011;12324;48.146;11.502;2023-04-06T08:59:06;18.23;;;9.13;;
24173;SDS011;12324;48.146;11.502;2023-04-06T09:01:34;18.25;;;9.73;;
24173;SDS011;12324;48.146;11.502;2023-04-06T09:04:08;18.27;;;9.63;;
24173;SDS011;12324;48.146;11.502;2023-04-06T09:06:38;16.85;;;8.50;;
24173;SDS011;12324;48.146;11.502;2023-04-06T09:09:07;18.90;;;9.13;;
24173;SDS011;12324;48.146;11.502;2023-04-06T09:11:47;17.77;;;8.70;;
24173;SDS011;12324;48.146;11.502;2023-04-06T09:14:15;18.20;;;8.77;;
24173;SDS011;12324;48.146;11.502;2023-04-06T09:16:43;17.90;;;8.80;;
24173;SDS011;12324;48.146;11.502;2023-04-06T09:19:11;17.40;;;9.25;;
24173;SDS011;12324;48.146;11.502;2023-04-06T09:21:38;18.73;;;9.60;;
24173;SDS011;12324;48.146;11.502;2023-04-06T09:24:06;18.17;;;9.43;;
24173;SDS011;12324;48.146;11.502;2023-04-06T09:26:43;15.65;;;8.68;;
24173;SDS011;12324;48.146;11.502;2023-04-06T09:29:23;17.23;;;8.52;;
24173;SDS011;12324;48.146;11.502;2023-04-06T09:31:52;17.25;;;9.35;;
24173;SDS011;12324;48.146;11.502;2023-04-06T09:34:31;19.00;;;9.10;;
24173;SDS011;12324;48.146;11.502;2023-04-06T09:36:59;17.50;;;8.95;;
24173;SDS011;12324;48.146;11.502;2023-04-06T09:39:25;17.25;;;9.48;;
24173;SDS011;12324;48.146;11.502;2023-04-06T09:41:52;19.83;;;8.60;;
24173;SDS011;12324;48.146;11.502;2023-04-06T09:44:20;18.98;;;9.20;;
24173;SDS011;12324;48.146;11.502;2023-04-06T09:46:47;16.38;;;8.82;;
24173;SDS011;12324;48.146;11.502;2023-04-06T09:49:25;16.38;;;9.00;;
24173;SDS011;12324;48.146;11.502;2023-04-06T09:51:54;18.95;;;9.57;;
24173;SDS011;12324;48.146;11.502;2023-04-06T09:54:24;17.58;;;9.13;;
24173;SDS011;12324;48.146;11.502;2023-04-06T09:57:19;16.50;;;9.10;;
24173;SDS011;12324;48.146;11.502;2023-04-06T10:02:45;17.95;;;9.43;;
24173;SDS011;12324;48.146;11.502;2023-04-06T10:05:55;18.33;;;9.60;;
24173;SDS011;12324;48.146;11.502;2023-04-06T10:08:25;17.85;;;9.88;;
24173;SDS011;12324;48.146;11.502;2023-04-06T10:10:58;18.38;;;10.15;;
24173;SDS011;12324;48.146;11.502;2023-04-06T10:13:25;17.83;;;10.30;;
24173;SDS011;12324;48.146;11.502;2023-04-06T10:15:52;16.88;;;9.40;;
24173;SDS011;12324;48.146;11.502;2023-04-06T10:18:19;17.33;;;9.77;;
24173;SDS011;12324;48.146;11.502;2023-04-06T10:20:50;17.80;;;8.75;;
24173;SDS011;12324;48.146;11.502;2023-04-06T10:23:26;16.98;;;9.02;;
24173;SDS011;12324;48.146;11.502;2023-04-06T10:25:54;18.70;;;9.90;;
24173;SDS011;12324;48.146;11.502;2023-04-06T10:28:22;20.63;;;10.30;;
24173;SDS011;12324;48.146;11.502;2023-04-06T10:30:49;20.33;;;10.25;;
24173;SDS011;12324;48.146;11.502;2023-04-06T10:33:22;19.37;;;10.37;;
24173;SDS011;12324;48.146;11.502;2023-04-06T10:35:49;19.33;;;10.75;;
24173;SDS011;12324;48.146;11.502;2023-04-06T10:38:15;19.33;;;10.27;;
24173;SDS011;12324;48.146;11.502;2023-04-06T10:40:47;21.13;;;10.00;;
24173;SDS011;12324;48.146;11.502;2023-04-06T10:43:21;20.15;;;10.32;;
24173;SDS011;12324;48.146;11.502;2023-04-06T10:45:55;18.10;;;9.88;;
24173;SDS011;12324;48.146;11.502;2023-04-06T10:50:51;17.75;;;10.05;;
24173;SDS011;12324;48.146;11.502;2023-04-06T10:53:22;16.77;;;9.68;;
24173;SDS011;12324;48.146;11.502;2023-04-06T10:55:50;17.55;;;9.73;;
24173;SDS011;12324;48.146;11.502;2023-04-06T10:58:17;19.02;;;9.82;;
24173;SDS011;12324;48.146;11.502;2023-04-06T11:00:45;19.10;;;9.32;;
24173;SDS011;12324;48.146;11.502;2023-04-06T11:03:16;16.13;;;8.27;;
24173;SDS011;12324;48.146;11.502;2023-04-06T11:05:46;16.60;;;9.63;;
24173;SDS011;12324;48.146;11.502;2023-04-06T11:11:13;17.42;;;9.20;;
24173;SDS011;12324;48.146;11.502;2023-04-06T11:13:45;19.00;;;8.98;;
24173;SDS011;12324;48.146;11.502;2023-04-06T11:16:14;16.17;;;8.98;;
24173;SDS011;12324;48.146;11.502;2023-04-06T11:21:15;15.63;;;9.02;;
24173;SDS011;12324;48.146;11.502;2023-04-06T11:23:42;15.30;;;9.32;;
24173;SDS011;12324;48.146;11.502;2023-04-06T11:26:10;15.65;;;8.82;;
24173;SDS011;12324;48.146;11.502;2023-04-06T11:28:38;17.40;;;9.30;;
24173;SDS011;12324;48.146;11.502;2023-04-06T11:31:05;16.02;;;8.27;;
24173;SDS011;12324;48.146;11.502;2023-04-06T11:33:36;16.15;;;8.20;;
24173;SDS011;12324;48.146;11.502;2023-04-06T11:36:04;16.48;;;8.35;;
24173;SDS011;12324;48.146;11.502;2023-04-06T11:38:32;17.02;;;8.85;;
24173;SDS011;12324;48.146;11.502;2023-04-06T11:41:00;18.27;;;9.13;;
24173;SDS011;12324;48.146;11.502;2023-04-06T11:43:29;20.05;;;10.13;;
24173;SDS011;12324;48.146;11.502;2023-04-06T11:46:00;17.98;;;10.00;;
24173;SDS011;12324;48.146;11.502;2023-04-06T11:48:28;15.57;;;8.48;;
24173;SDS011;12324;48.146;11.502;2023-04-06T11:50:57;17.02;;;9.65;;
24173;SDS011;12324;48.146;11.502;2023-04-06T11:53:24;16.67;;;9.02;;
24173;SDS011;12324;48.146;11.502;2023-04-06T11:55:52;17.60;;;8.65;;
24173;SDS011;12324;48.146;11.502;2023-04-06T11:58:18;15.50;;;8.05;;
24173;SDS011;12324;48.146;11.502;2023-04-06T12:00:45;14.35;;;7.60;;
24173;SDS011;12324;48.146;11.502;2023-04-06T12:03:13;14.10;;;7.10;;
24173;SDS011;12324;48.146;11.502;2023-04-06T12:05:40;13.27;;;7.05;;
24173;SDS011;12324;48.146;11.502;2023-04-06T12:08:07;15.10;;;7.20;;
24173;SDS011;12324;48.146;11.502;2023-04-06T12:10:34;13.73;;;6.80;;
24173;SDS011;12324;48.146;11.502;2023-04-06T12:13:01;13.32;;;7.07;;
24173;SDS011;12324;48.146;11.502;2023-04-06T12:15:28;16.65;;;7.05;;
24173;SDS011;12324;48.146;11.502;2023-04-06T12:17:55;12.15;;;6.78;;
24173;SDS011;12324;48.146;11.502;2023-04-06T12:20:22;14.05;;;6.95;;
24173;SDS011;12324;48.146;11.502;2023-04-06T12:22:52;14.45;;;7.03;;
24173;SDS011;12324;48.146;11.502;2023-04-06T12:25:19;13.38;;;7.22;;
24173;SDS011;12324;48.146;11.502;2023-04-06T12:27:46;15.57;;;7.45;;
24173;SDS011;12324;48.146;11.502;2023-04-06T12:30:13;14.38;;;7.45;;
24173;SDS011;12324;48.146;11.502;2023-04-06T12:32:40;16.27;;;7.88;;
24173;SDS011;12324;48.146;11.502;2023-04-06T12:35:08;17.00;;;6.82;;
24173;SDS011;12324;48.146;11.502;2023-04-06T12:37:35;14.13;;;7.07;;
24173;SDS011;12324;48.146;11.502;2023-04-06T12:40:03;15.15;;;6.72;;
24173;SDS011;12324;48.146;11.502;2023-04-06T12:42:30;14.52;;;7.43;;
24173;SDS011;12324;48.146;11.502;2023-04-06T12:44:57;15.13;;;7.53;;
24173;SDS011;12324;48.146;11.502;2023-04-06T12:47:25;15.45;;;8.05;;
24173;SDS011;12324;48.146;11.502;2023-04-06T12:49:52;15.70;;;7.68;;
24173;SDS011;12324;48.146;11.502;2023-04-06T12:52:20;14.63;;;7.43;;
24173;SDS011;12324;48.146;11.502;2023-04-06T12:54:47;14.00;;;6.90;;
24173;SDS011;12324;48.146;11.502;2023-04-06T12:57:16;14.80;;;7.32;;
24173;SDS011;12324;48.146;11.502;2023-04-06T12:59:43;17.30;;;8.77;;
24173;SDS011;12324;48.146;11.502;2023-04-06T13:02:11;16.27;;;8.60;;
24173;SDS011;12324;48.146;11.502;2023-04-06T13:04:38;16.23;;;7.88;;
24173;SDS011;12324;48.146;11.502;2023-04-06T13:07:05;15.95;;;7.85;;
24173;SDS011;12324;48.146;11.502;2023-04-06T13:09:32;14.65;;;7.05;;
24173;SDS011;12324;48.146;11.502;2023-04-06T13:11:59;15.02;;;7.25;;
24173;SDS011;12324;48.146;11.502;2023-04-06T13:14:27;18.10;;;7.57;;
24173;SDS011;12324;48.146;11.502;2023-04-06T13:16:53;14.73;;;7.30;;
24173;SDS011;12324;48.146;11.502;2023-04-06T13:19:21;15.13;;;7.93;;
24173;SDS011;12324;48.146;11.502;2023-04-06T13:21:47;15.98;;;7.47;;
24173;SDS011;12324;48.146;11.502;2023-04-06T13:24:14;17.70;;;7.22;;
24173;SDS011;12324;48.146;11.502;2023-04-06T13:26:42;13.63;;;7.65;;
24173;SDS011;12324;48.146;11.502;2023-04-06T13:29:09;14.55;;;7.30;;
24173;SDS011;12324;48.146;11.502;2023-04-06T13:31:36;12.68;;;6.63;;
24173;SDS011;12324;48.146;11.502;2023-04-06T13:34:04;13.73;;;7.30;;
24173;SDS011;12324;48.146;11.502;2023-04-06T13:36:31;15.48;;;7.85;;
24173;SDS011;12324;48.146;11.502;2023-04-06T13:38:58;17.48;;;7.15;;
24173;SDS011;12324;48.146;11.502;2023-04-06T13:41:25;11.57;;;5.93;;
24173;SDS011;12324;48.146;11.502;2023-04-06T13:43:52;12.50;;;5.47;;
24173;SDS011;12324;48.146;11.502;2023-04-06T13:46:19;13.25;;;6.70;;
24173;SDS011;12324;48.146;11.502;2023-04-06T13:48:46;16.85;;;7.25;;
24173;SDS011;12324;48.146;11.502;2023-04-06T13:51:14;13.57;;;6.93;;
24173;SDS011;12324;48.146;11.502;2023-04-06T13:53:41;13.32;;;7.10;;
24173;SDS011;12324;48.146;11.502;2023-04-06T13:56:08;16.50;;;8.05;;
24173;SDS011;12324;48.146;11.502;2023-04-06T13:58:34;12.48;;;6.30;;
24173;SDS011;12324;48.146;11.502;2023-04-06T14:01:03;13.20;;;5.95;;
24173;SDS011;12324;48.146;11.502;2023-04-06T14:03:36;12.27;;;5.95;;
24173;SDS011;12324;48.146;11.502;2023-04-06T14:06:12;15.23;;;6.20;;
24173;SDS011;12324;48.146;11.502;2023-04-06T14:08:56;15.27;;;6.03;;
24173;SDS011;12324;48.146;11.502;2023-04-06T14:11:23;13.75;;;6.15;;
24173;SDS011;12324;48.146;11.502;2023-04-06T14:13:50;12.90;;;6.38;;
24173;SDS011;12324;48.146;11.502;2023-04-06T14:16:17;13.75;;;6.55;;
24173;SDS011;12324;48.146;11.502;2023-04-06T14:18:45;14.20;;;7.05;;
24173;SDS011;12324;48.146;11.502;2023-04-06T14:21:12;15.13;;;6.05;;
24173;SDS011;12324;48.146;11.502;2023-04-06T14:23:39;12.40;;;6.38;;
24173;SDS011;12324;48.146;11.502;2023-04-06T14:26:07;13.32;;;6.50;;
24173;SDS011;12324;48.146;11.502;2023-04-06T14:28:35;13.85;;;6.30;;
24173;SDS011;12324;48.146;11.502;2023-04-06T14:31:09;14.68;;;6.47;;
24173;SDS011;12324;48.146;11.502;2023-04-06T14:33:41;12.20;;;5.97;;